sensor_id;sensor_type;location;lat;lon;timestamp;temperature;humidity
43524;DHT22;29120;52.006;6.020;2022-12-07T00:00:55;5.30;99.90
43524;DHT22;29120;52.006;6.020;2022-12-07T00:03:21;5.40;99.90
43524;DHT22;29120;52.006;6.020;2022-12-07T00:05:46;5.50;99.90
43524;DHT22;29120;52.006;6.020;2022-12-07T00:08:12;5.50;99.90
43524;DHT22;29120;52.006;6.020;2022-12-07T00:10:37;5.50;99.90
43524;DHT22;29120;52.006;6.020;2022-12-07T00:13:03;5.40;99.90
43524;DHT22;29120;52.006;6.020;2022-12-07T00:15:28;5.30;99.90
43524;DHT22;29120;52.006;6.020;2022-12-07T00:17:54;5.20;99.90
43524;DHT22;29120;52.006;6.020;2022-12-07T00:20:19;5.10;99.90
43524;DHT22;29120;52.006;6.020;2022-12-07T00:22:44;5.00;99.90
43524;DHT22;29120;52.006;6.020;2022-12-07T00:25:10;4.90;99.90
43524;DHT22;29120;52.006;6.020;2022-12-07T00:27:35;4.90;99.90
43524;DHT22;29120;52.006;6.020;2022-12-07T00:30:01;4.80;99.90
43524;DHT22;29120;52.006;6.020;2022-12-07T00:32:26;4.70;99.90
43524;DHT22;29120;52.006;6.020;2022-12-07T00:34:52;4.70;99.90
43524;DHT22;29120;52.006;6.020;2022-12-07T00:37:17;4.60;99.90
43524;DHT22;29120;52.006;6.020;2022-12-07T00:39:43;4.60;99.90
43524;DHT22;29120;52.006;6.020;2022-12-07T00:42:08;4.60;99.90
43524;DHT22;29120;52.006;6.020;2022-12-07T00:44:34;4.50;99.90
43524;DHT22;29120;52.006;6.020;2022-12-07T00:46:59;4.50;99.90
43524;DHT22;29120;52.006;6.020;2022-12-07T00:49:25;4.40;99.90
43524;DHT22;29120;52.006;6.020;2022-12-07T00:51:50;4.40;99.90
43524;DHT22;29120;52.006;6.020;2022-12-07T00:54:16;4.40;99.90
43524;DHT22;29120;52.006;6.020;2022-12-07T00:56:41;4.40;99.90
43524;DHT22;29120;52.006;6.020;2022-12-07T00:59:07;4.30;99.90
43524;DHT22;29120;52.006;6.020;2022-12-07T01:01:34;4.30;99.90
43524;DHT22;29120;52.006;6.020;2022-12-07T01:03:59;4.30;99.90
43524;DHT22;29120;52.006;6.020;2022-12-07T01:06:28;4.30;99.90
43524;DHT22;29120;52.006;6.020;2022-12-07T01:08:54;4.20;99.90
43524;DHT22;29120;52.006;6.020;2022-12-07T01:11:21;4.20;99.90
43524;DHT22;29120;52.006;6.020;2022-12-07T01:13:49;4.20;99.90
43524;DHT22;29120;52.006;6.020;2022-12-07T01:16:15;4.20;99.90
43524;DHT22;29120;52.006;6.020;2022-12-07T01:18:41;4.10;99.90
43524;DHT22;29120;52.006;6.020;2022-12-07T01:23:32;4.10;99.90
43524;DHT22;29120;52.006;6.020;2022-12-07T01:25:59;4.20;99.90
43524;DHT22;29120;52.006;6.020;2022-12-07T01:28:25;4.10;99.90
43524;DHT22;29120;52.006;6.020;2022-12-07T01:30:54;4.10;99.90
43524;DHT22;29120;52.006;6.020;2022-12-07T01:33:20;4.10;99.90
43524;DHT22;29120;52.006;6.020;2022-12-07T01:35:45;4.00;99.90
43524;DHT22;29120;52.006;6.020;2022-12-07T01:38:11;4.00;99.90
43524;DHT22;29120;52.006;6.020;2022-12-07T01:40:36;4.00;99.90
43524;DHT22;29120;52.006;6.020;2022-12-07T01:43:02;4.00;99.90
43524;DHT22;29120;52.006;6.020;2022-12-07T01:47:55;4.00;99.90
43524;DHT22;29120;52.006;6.020;2022-12-07T01:50:22;4.00;99.90
43524;DHT22;29120;52.006;6.020;2022-12-07T01:52:50;4.00;99.90
43524;DHT22;29120;52.006;6.020;2022-12-07T01:55:16;4.00;99.90
43524;DHT22;29120;52.006;6.020;2022-12-07T01:57:43;4.00;99.90
43524;DHT22;29120;52.006;6.020;2022-12-07T02:00:11;3.90;99.90
43524;DHT22;29120;52.006;6.020;2022-12-07T02:02:37;3.90;99.90
43524;DHT22;29120;52.006;6.020;2022-12-07T02:05:04;3.90;99.90
43524;DHT22;29120;52.006;6.020;2022-12-07T02:07:30;3.90;99.90
43524;DHT22;29120;52.006;6.020;2022-12-07T02:09:56;3.80;99.90
43524;DHT22;29120;52.006;6.020;2022-12-07T02:12:22;3.90;99.90
43524;DHT22;29120;52.006;6.020;2022-12-07T02:14:48;3.80;99.90
43524;DHT22;29120;52.006;6.020;2022-12-07T02:17:17;3.80;99.90
43524;DHT22;29120;52.006;6.020;2022-12-07T02:19:58;3.80;99.90
43524;DHT22;29120;52.006;6.020;2022-12-07T02:24:56;3.80;99.90
43524;DHT22;29120;52.006;6.020;2022-12-07T02:34:49;3.70;99.90
43524;DHT22;29120;52.006;6.020;2022-12-07T02:37:19;3.70;99.90
43524;DHT22;29120;52.006;6.020;2022-12-07T02:39:51;3.70;99.90
43524;DHT22;29120;52.006;6.020;2022-12-07T02:42:22;3.70;99.90
43524;DHT22;29120;52.006;6.020;2022-12-07T02:44:48;3.60;99.90
43524;DHT22;29120;52.006;6.020;2022-12-07T02:47:15;3.60;99.90
43524;DHT22;29120;52.006;6.020;2022-12-07T02:49:41;3.60;99.90
43524;DHT22;29120;52.006;6.020;2022-12-07T02:52:07;3.60;99.90
43524;DHT22;29120;52.006;6.020;2022-12-07T02:54:32;3.60;99.90
43524;DHT22;29120;52.006;6.020;2022-12-07T02:57:01;3.60;99.90
43524;DHT22;29120;52.006;6.020;2022-12-07T02:59:43;3.60;99.90
43524;DHT22;29120;52.006;6.020;2022-12-07T03:07:26;3.60;99.90
43524;DHT22;29120;52.006;6.020;2022-12-07T03:12:27;3.70;99.90
43524;DHT22;29120;52.006;6.020;2022-12-07T03:15:03;3.70;99.90
43524;DHT22;29120;52.006;6.020;2022-12-07T03:17:31;3.80;99.90
43524;DHT22;29120;52.006;6.020;2022-12-07T03:20:00;3.90;99.90
43524;DHT22;29120;52.006;6.020;2022-12-07T03:22:28;4.00;99.90
43524;DHT22;29120;52.006;6.020;2022-12-07T03:24:56;4.10;99.90
43524;DHT22;29120;52.006;6.020;2022-12-07T03:27:23;4.10;99.90
43524;DHT22;29120;52.006;6.020;2022-12-07T03:30:00;4.20;99.90
43524;DHT22;29120;52.006;6.020;2022-12-07T03:35:03;4.30;99.90
43524;DHT22;29120;52.006;6.020;2022-12-07T03:39:57;4.40;99.90
43524;DHT22;29120;52.006;6.020;2022-12-07T03:42:26;4.40;99.90
43524;DHT22;29120;52.006;6.020;2022-12-07T03:44:52;4.40;99.90
43524;DHT22;29120;52.006;6.020;2022-12-07T03:52:32;4.40;99.90
43524;DHT22;29120;52.006;6.020;2022-12-07T03:55:00;4.40;99.90
43524;DHT22;29120;52.006;6.020;2022-12-07T03:57:28;4.50;99.90
43524;DHT22;29120;52.006;6.020;2022-12-07T03:59:55;4.50;99.90
43524;DHT22;29120;52.006;6.020;2022-12-07T04:02:21;4.50;99.90
43524;DHT22;29120;52.006;6.020;2022-12-07T04:04:47;4.60;99.90
43524;DHT22;29120;52.006;6.020;2022-12-07T04:07:12;4.60;99.90
43524;DHT22;29120;52.006;6.020;2022-12-07T04:09:38;4.60;99.90
43524;DHT22;29120;52.006;6.020;2022-12-07T04:12:04;4.60;99.90
43524;DHT22;29120;52.006;6.020;2022-12-07T04:14:29;4.60;99.90
43524;DHT22;29120;52.006;6.020;2022-12-07T04:16:56;4.50;99.90
43524;DHT22;29120;52.006;6.020;2022-12-07T04:19:23;4.50;99.90
43524;DHT22;29120;52.006;6.020;2022-12-07T04:21:49;4.40;99.90
43524;DHT22;29120;52.006;6.020;2022-12-07T04:24:14;4.30;99.90
43524;DHT22;29120;52.006;6.020;2022-12-07T04:26:40;4.20;99.90
43524;DHT22;29120;52.006;6.020;2022-12-07T04:29:06;4.10;99.90
43524;DHT22;29120;52.006;6.020;2022-12-07T04:31:31;4.10;99.90
43524;DHT22;29120;52.006;6.020;2022-12-07T04:33:57;4.00;99.90
43524;DHT22;29120;52.006;6.020;2022-12-07T04:36:22;3.90;99.90
43524;DHT22;29120;52.006;6.020;2022-12-07T04:38:48;3.80;99.90
43524;DHT22;29120;52.006;6.020;2022-12-07T04:41:13;3.80;99.90
43524;DHT22;29120;52.006;6.020;2022-12-07T04:43:39;3.90;99.90
43524;DHT22;29120;52.006;6.020;2022-12-07T04:46:04;3.90;99.90
43524;DHT22;29120;52.006;6.020;2022-12-07T04:48:30;3.90;99.90
43524;DHT22;29120;52.006;6.020;2022-12-07T04:50:56;3.90;99.90
43524;DHT22;29120;52.006;6.020;2022-12-07T04:53:21;4.00;99.90
43524;DHT22;29120;52.006;6.020;2022-12-07T04:55:47;4.10;99.90
43524;DHT22;29120;52.006;6.020;2022-12-07T04:58:13;4.20;99.90
43524;DHT22;29120;52.006;6.020;2022-12-07T05:00:38;4.20;99.90
43524;DHT22;29120;52.006;6.020;2022-12-07T05:03:04;4.30;99.90
43524;DHT22;29120;52.006;6.020;2022-12-07T05:05:30;4.30;99.90
43524;DHT22;29120;52.006;6.020;2022-12-07T05:07:55;4.40;99.90
43524;DHT22;29120;52.006;6.020;2022-12-07T05:10:21;4.30;99.90
43524;DHT22;29120;52.006;6.020;2022-12-07T05:12:46;4.20;99.90
43524;DHT22;29120;52.006;6.020;2022-12-07T05:15:12;4.10;99.90
43524;DHT22;29120;52.006;6.020;2022-12-07T05:17:38;4.00;99.90
43524;DHT22;29120;52.006;6.020;2022-12-07T05:20:04;3.90;99.90
43524;DHT22;29120;52.006;6.020;2022-12-07T05:22:29;3.80;99.90
43524;DHT22;29120;52.006;6.020;2022-12-07T05:24:55;3.80;99.90
43524;DHT22;29120;52.006;6.020;2022-12-07T05:27:21;3.70;99.90
43524;DHT22;29120;52.006;6.020;2022-12-07T05:29:46;3.70;99.90
43524;DHT22;29120;52.006;6.020;2022-12-07T05:32:12;3.70;99.90
43524;DHT22;29120;52.006;6.020;2022-12-07T05:34:37;3.60;99.90
43524;DHT22;29120;52.006;6.020;2022-12-07T05:37:02;3.50;99.90
43524;DHT22;29120;52.006;6.020;2022-12-07T05:39:28;3.50;99.90
43524;DHT22;29120;52.006;6.020;2022-12-07T05:41:53;3.50;99.90
43524;DHT22;29120;52.006;6.020;2022-12-07T05:44:37;3.50;99.90
43524;DHT22;29120;52.006;6.020;2022-12-07T05:47:03;3.40;99.90
43524;DHT22;29120;52.006;6.020;2022-12-07T05:49:28;3.40;99.90
43524;DHT22;29120;52.006;6.020;2022-12-07T05:51:54;3.50;99.90
43524;DHT22;29120;52.006;6.020;2022-12-07T05:54:19;3.60;99.90
43524;DHT22;29120;52.006;6.020;2022-12-07T05:56:45;3.70;99.90
43524;DHT22;29120;52.006;6.020;2022-12-07T05:59:10;3.70;99.90
43524;DHT22;29120;52.006;6.020;2022-12-07T06:02:00;3.60;99.90
43524;DHT22;29120;52.006;6.020;2022-12-07T06:04:28;3.60;99.90
43524;DHT22;29120;52.006;6.020;2022-12-07T06:06:54;3.50;99.90
43524;DHT22;29120;52.006;6.020;2022-12-07T06:09:20;3.50;99.90
43524;DHT22;29120;52.006;6.020;2022-12-07T06:11:46;3.40;99.90
43524;DHT22;29120;52.006;6.020;2022-12-07T06:14:30;3.40;99.90
43524;DHT22;29120;52.006;6.020;2022-12-07T06:16:56;3.40;99.90
43524;DHT22;29120;52.006;6.020;2022-12-07T06:19:21;3.40;99.90
43524;DHT22;29120;52.006;6.020;2022-12-07T06:21:47;3.30;99.90
43524;DHT22;29120;52.006;6.020;2022-12-07T06:24:13;3.30;99.90
43524;DHT22;29120;52.006;6.020;2022-12-07T06:26:39;3.30;99.90
43524;DHT22;29120;52.006;6.020;2022-12-07T06:29:04;3.20;99.90
43524;DHT22;29120;52.006;6.020;2022-12-07T06:31:30;3.20;99.90
43524;DHT22;29120;52.006;6.020;2022-12-07T06:33:59;3.20;99.90
43524;DHT22;29120;52.006;6.020;2022-12-07T06:36:24;3.20;99.90
43524;DHT22;29120;52.006;6.020;2022-12-07T06:38:50;3.20;99.90
43524;DHT22;29120;52.006;6.020;2022-12-07T06:41:15;3.20;99.90
43524;DHT22;29120;52.006;6.020;2022-12-07T06:43:41;3.10;99.90
43524;DHT22;29120;52.006;6.020;2022-12-07T06:46:07;3.10;99.90
43524;DHT22;29120;52.006;6.020;2022-12-07T06:48:32;3.10;99.90
43524;DHT22;29120;52.006;6.020;2022-12-07T06:50:58;3.10;99.90
43524;DHT22;29120;52.006;6.020;2022-12-07T06:53:23;3.00;99.90
43524;DHT22;29120;52.006;6.020;2022-12-07T06:55:49;3.00;99.90
43524;DHT22;29120;52.006;6.020;2022-12-07T06:58:14;3.00;99.90
43524;DHT22;29120;52.006;6.020;2022-12-07T07:00:40;3.10;99.90
43524;DHT22;29120;52.006;6.020;2022-12-07T07:03:06;3.10;99.90
43524;DHT22;29120;52.006;6.020;2022-12-07T07:05:32;3.10;99.90
43524;DHT22;29120;52.006;6.020;2022-12-07T07:07:57;3.20;99.90
43524;DHT22;29120;52.006;6.020;2022-12-07T07:10:22;3.20;99.90
43524;DHT22;29120;52.006;6.020;2022-12-07T07:12:48;3.20;99.90
43524;DHT22;29120;52.006;6.020;2022-12-07T07:15:13;3.20;99.90
43524;DHT22;29120;52.006;6.020;2022-12-07T07:17:39;3.20;99.90
43524;DHT22;29120;52.006;6.020;2022-12-07T07:20:05;3.20;99.90
43524;DHT22;29120;52.006;6.020;2022-12-07T07:22:30;3.20;99.90
43524;DHT22;29120;52.006;6.020;2022-12-07T07:24:56;3.20;99.90
43524;DHT22;29120;52.006;6.020;2022-12-07T07:27:23;3.10;99.90
43524;DHT22;29120;52.006;6.020;2022-12-07T07:29:48;3.10;99.90
43524;DHT22;29120;52.006;6.020;2022-12-07T07:32:14;3.10;99.90
43524;DHT22;29120;52.006;6.020;2022-12-07T07:34:39;3.10;99.90
43524;DHT22;29120;52.006;6.020;2022-12-07T07:37:05;3.10;99.90
43524;DHT22;29120;52.006;6.020;2022-12-07T07:39:30;3.10;99.90
43524;DHT22;29120;52.006;6.020;2022-12-07T07:41:56;3.00;99.90
43524;DHT22;29120;52.006;6.020;2022-12-07T07:44:21;3.10;99.90
43524;DHT22;29120;52.006;6.020;2022-12-07T07:46:47;3.10;99.90
43524;DHT22;29120;52.006;6.020;2022-12-07T07:49:12;3.10;99.90
43524;DHT22;29120;52.006;6.020;2022-12-07T07:51:38;3.10;99.90
43524;DHT22;29120;52.006;6.020;2022-12-07T07:54:03;3.10;99.90
43524;DHT22;29120;52.006;6.020;2022-12-07T07:56:29;3.10;99.90
43524;DHT22;29120;52.006;6.020;2022-12-07T07:58:54;3.00;99.90
43524;DHT22;29120;52.006;6.020;2022-12-07T08:01:20;3.10;99.90
43524;DHT22;29120;52.006;6.020;2022-12-07T08:03:46;3.10;99.90
43524;DHT22;29120;52.006;6.020;2022-12-07T08:06:11;3.10;99.90
43524;DHT22;29120;52.006;6.020;2022-12-07T08:08:36;3.10;99.90
43524;DHT22;29120;52.006;6.020;2022-12-07T08:11:05;3.10;99.90
43524;DHT22;29120;52.006;6.020;2022-12-07T08:13:30;3.20;99.90
43524;DHT22;29120;52.006;6.020;2022-12-07T08:15:55;3.20;99.90
43524;DHT22;29120;52.006;6.020;2022-12-07T08:18:21;3.30;99.90
43524;DHT22;29120;52.006;6.020;2022-12-07T08:20:46;3.40;99.90
43524;DHT22;29120;52.006;6.020;2022-12-07T08:23:12;3.60;99.90
43524;DHT22;29120;52.006;6.020;2022-12-07T08:25:38;3.80;99.90
43524;DHT22;29120;52.006;6.020;2022-12-07T08:28:03;4.10;99.90
43524;DHT22;29120;52.006;6.020;2022-12-07T08:30:29;4.20;99.90
43524;DHT22;29120;52.006;6.020;2022-12-07T08:32:55;4.30;99.90
43524;DHT22;29120;52.006;6.020;2022-12-07T08:35:20;4.40;99.90
43524;DHT22;29120;52.006;6.020;2022-12-07T08:37:46;4.50;99.90
43524;DHT22;29120;52.006;6.020;2022-12-07T08:40:12;4.50;99.90
43524;DHT22;29120;52.006;6.020;2022-12-07T08:42:47;4.60;99.90
43524;DHT22;29120;52.006;6.020;2022-12-07T08:45:13;4.60;99.90
43524;DHT22;29120;52.006;6.020;2022-12-07T08:47:47;4.70;99.90
43524;DHT22;29120;52.006;6.020;2022-12-07T08:50:14;4.70;99.90
43524;DHT22;29120;52.006;6.020;2022-12-07T08:52:40;4.80;99.90
43524;DHT22;29120;52.006;6.020;2022-12-07T08:55:06;4.80;99.90
43524;DHT22;29120;52.006;6.020;2022-12-07T08:57:32;4.80;99.90
43524;DHT22;29120;52.006;6.020;2022-12-07T08:59:58;4.80;99.90
43524;DHT22;29120;52.006;6.020;2022-12-07T09:02:24;4.90;99.90
43524;DHT22;29120;52.006;6.020;2022-12-07T09:04:49;4.80;99.90
43524;DHT22;29120;52.006;6.020;2022-12-07T09:07:15;4.80;99.90
43524;DHT22;29120;52.006;6.020;2022-12-07T09:09:40;4.80;99.90
43524;DHT22;29120;52.006;6.020;2022-12-07T09:12:06;4.80;99.90
43524;DHT22;29120;52.006;6.020;2022-12-07T09:14:31;4.80;99.90
43524;DHT22;29120;52.006;6.020;2022-12-07T09:17:07;4.80;99.90
43524;DHT22;29120;52.006;6.020;2022-12-07T09:19:33;4.80;99.90
43524;DHT22;29120;52.006;6.020;2022-12-07T09:21:58;4.80;99.90
43524;DHT22;29120;52.006;6.020;2022-12-07T09:24:24;4.80;99.90
43524;DHT22;29120;52.006;6.020;2022-12-07T09:26:49;4.80;99.90
43524;DHT22;29120;52.006;6.020;2022-12-07T09:29:15;4.80;99.90
43524;DHT22;29120;52.006;6.020;2022-12-07T09:31:40;5.00;99.90
43524;DHT22;29120;52.006;6.020;2022-12-07T09:34:06;5.30;99.90
43524;DHT22;29120;52.006;6.020;2022-12-07T09:36:32;5.60;99.90
43524;DHT22;29120;52.006;6.020;2022-12-07T09:38:58;6.00;99.90
43524;DHT22;29120;52.006;6.020;2022-12-07T09:41:24;6.30;99.90
43524;DHT22;29120;52.006;6.020;2022-12-07T09:43:50;6.60;99.90
43524;DHT22;29120;52.006;6.020;2022-12-07T09:46:16;6.70;99.90
43524;DHT22;29120;52.006;6.020;2022-12-07T09:48:43;6.80;99.90
43524;DHT22;29120;52.006;6.020;2022-12-07T09:51:19;6.80;99.90
43524;DHT22;29120;52.006;6.020;2022-12-07T09:53:45;6.70;99.90
43524;DHT22;29120;52.006;6.020;2022-12-07T09:56:15;6.80;99.90
43524;DHT22;29120;52.006;6.020;2022-12-07T09:58:42;6.80;99.90
43524;DHT22;29120;52.006;6.020;2022-12-07T10:03:34;6.70;99.90
43524;DHT22;29120;52.006;6.020;2022-12-07T10:06:00;6.60;99.90
43524;DHT22;29120;52.006;6.020;2022-12-07T10:08:25;6.50;99.90
43524;DHT22;29120;52.006;6.020;2022-12-07T10:10:52;6.40;99.90
43524;DHT22;29120;52.006;6.020;2022-12-07T10:13:22;6.30;99.90
43524;DHT22;29120;52.006;6.020;2022-12-07T10:15:54;6.80;99.90
43524;DHT22;29120;52.006;6.020;2022-12-07T10:21:03;7.80;99.90
43524;DHT22;29120;52.006;6.020;2022-12-07T10:23:29;8.70;99.90
43524;DHT22;29120;52.006;6.020;2022-12-07T10:25:55;9.80;99.90
43524;DHT22;29120;52.006;6.020;2022-12-07T10:28:20;11.00;99.90
43524;DHT22;29120;52.006;6.020;2022-12-07T10:33:48;12.30;99.30
43524;DHT22;29120;52.006;6.020;2022-12-07T10:36:20;12.90;98.30
43524;DHT22;29120;52.006;6.020;2022-12-07T10:38:47;13.00;97.20
43524;DHT22;29120;52.006;6.020;2022-12-07T10:41:13;12.40;97.50
43524;DHT22;29120;52.006;6.020;2022-12-07T10:43:46;12.10;97.80
43524;DHT22;29120;52.006;6.020;2022-12-07T10:46:30;11.80;98.20
43524;DHT22;29120;52.006;6.020;2022-12-07T10:51:51;11.70;98.30
43524;DHT22;29120;52.006;6.020;2022-12-07T10:54:23;11.90;97.90
43524;DHT22;29120;52.006;6.020;2022-12-07T11:07:14;10.50;98.70
43524;DHT22;29120;52.006;6.020;2022-12-07T11:20:15;9.00;99.40
43524;DHT22;29120;52.006;6.020;2022-12-07T11:25:20;10.10;98.70
43524;DHT22;29120;52.006;6.020;2022-12-07T11:28:00;10.20;97.90
43524;DHT22;29120;52.006;6.020;2022-12-07T11:30:31;10.50;98.10
43524;DHT22;29120;52.006;6.020;2022-12-07T11:37:51;11.80;97.20
43524;DHT22;29120;52.006;6.020;2022-12-07T11:40:38;12.20;96.50
43524;DHT22;29120;52.006;6.020;2022-12-07T11:45:37;12.40;96.70
43524;DHT22;29120;52.006;6.020;2022-12-07T11:48:16;13.20;96.60
43524;DHT22;29120;52.006;6.020;2022-12-07T11:50:48;14.30;95.70
43524;DHT22;29120;52.006;6.020;2022-12-07T11:58:20;15.40;92.60
43524;DHT22;29120;52.006;6.020;2022-12-07T12:00:48;15.70;92.30
43524;DHT22;29120;52.006;6.020;2022-12-07T12:03:15;15.40;91.60
43524;DHT22;29120;52.006;6.020;2022-12-07T12:05:42;14.50;92.10
43524;DHT22;29120;52.006;6.020;2022-12-07T12:10:55;12.90;93.10
43524;DHT22;29120;52.006;6.020;2022-12-07T12:15:54;12.50;93.70
43524;DHT22;29120;52.006;6.020;2022-12-07T12:21:08;11.80;94.00
43524;DHT22;29120;52.006;6.020;2022-12-07T12:23:51;11.40;94.20
43524;DHT22;29120;52.006;6.020;2022-12-07T12:26:20;11.00;94.40
43524;DHT22;29120;52.006;6.020;2022-12-07T12:28:59;10.70;94.50
43524;DHT22;29120;52.006;6.020;2022-12-07T12:31:31;10.40;94.60
43524;DHT22;29120;52.006;6.020;2022-12-07T12:33:58;10.30;94.80
43524;DHT22;29120;52.006;6.020;2022-12-07T12:38:51;10.20;94.70
43524;DHT22;29120;52.006;6.020;2022-12-07T12:44:00;10.10;94.60
43524;DHT22;29120;52.006;6.020;2022-12-07T12:48:54;10.30;94.70
43524;DHT22;29120;52.006;6.020;2022-12-07T12:51:43;10.30;94.20
43524;DHT22;29120;52.006;6.020;2022-12-07T12:54:22;10.30;94.20
43524;DHT22;29120;52.006;6.020;2022-12-07T12:57:01;10.30;94.20
43524;DHT22;29120;52.006;6.020;2022-12-07T12:59:30;10.10;94.30
43524;DHT22;29120;52.006;6.020;2022-12-07T13:02:46;10.00;94.50
43524;DHT22;29120;52.006;6.020;2022-12-07T13:10:00;9.50;94.80
43524;DHT22;29120;52.006;6.020;2022-12-07T13:12:26;9.40;95.00
43524;DHT22;29120;52.006;6.020;2022-12-07T13:14:53;9.40;95.20
43524;DHT22;29120;52.006;6.020;2022-12-07T13:19:57;9.30;95.30
43524;DHT22;29120;52.006;6.020;2022-12-07T13:25:09;9.00;95.50
43524;DHT22;29120;52.006;6.020;2022-12-07T13:27:37;8.90;95.50
43524;DHT22;29120;52.006;6.020;2022-12-07T13:30:03;8.70;95.50
43524;DHT22;29120;52.006;6.020;2022-12-07T13:32:33;8.70;95.70
43524;DHT22;29120;52.006;6.020;2022-12-07T13:34:59;8.70;95.80
43524;DHT22;29120;52.006;6.020;2022-12-07T13:37:25;8.70;95.80
43524;DHT22;29120;52.006;6.020;2022-12-07T13:39:52;8.80;95.90
43524;DHT22;29120;52.006;6.020;2022-12-07T13:42:22;8.80;96.10
43524;DHT22;29120;52.006;6.020;2022-12-07T13:44:49;8.80;95.80
43524;DHT22;29120;52.006;6.020;2022-12-07T13:47:20;8.80;95.90
43524;DHT22;29120;52.006;6.020;2022-12-07T13:49:49;8.80;95.80
43524;DHT22;29120;52.006;6.020;2022-12-07T13:52:16;8.80;95.70
43524;DHT22;29120;52.006;6.020;2022-12-07T13:54:48;8.90;95.70
43524;DHT22;29120;52.006;6.020;2022-12-07T13:57:15;8.90;96.00
43524;DHT22;29120;52.006;6.020;2022-12-07T13:59:41;8.90;95.60
43524;DHT22;29120;52.006;6.020;2022-12-07T14:04:51;8.70;95.70
43524;DHT22;29120;52.006;6.020;2022-12-07T14:07:24;8.50;95.60
43524;DHT22;29120;52.006;6.020;2022-12-07T14:10:00;8.30;95.80
43524;DHT22;29120;52.006;6.020;2022-12-07T14:12:26;8.00;96.10
43524;DHT22;29120;52.006;6.020;2022-12-07T14:14:52;7.90;96.30
43524;DHT22;29120;52.006;6.020;2022-12-07T14:17:19;7.80;96.50
43524;DHT22;29120;52.006;6.020;2022-12-07T14:22:27;7.60;96.80
43524;DHT22;29120;52.006;6.020;2022-12-07T14:25:00;7.40;97.00
43524;DHT22;29120;52.006;6.020;2022-12-07T14:27:30;7.30;97.20
43524;DHT22;29120;52.006;6.020;2022-12-07T14:29:59;7.20;97.20
43524;DHT22;29120;52.006;6.020;2022-12-07T14:32:25;7.20;97.30
43524;DHT22;29120;52.006;6.020;2022-12-07T14:37:19;7.10;97.50
43524;DHT22;29120;52.006;6.020;2022-12-07T14:39:45;7.10;97.60
43524;DHT22;29120;52.006;6.020;2022-12-07T14:42:11;7.10;97.70
43524;DHT22;29120;52.006;6.020;2022-12-07T14:44:36;7.10;97.70
43524;DHT22;29120;52.006;6.020;2022-12-07T14:47:02;7.00;97.80
43524;DHT22;29120;52.006;6.020;2022-12-07T14:49:27;7.00;97.90
43524;DHT22;29120;52.006;6.020;2022-12-07T14:51:52;7.00;97.90
43524;DHT22;29120;52.006;6.020;2022-12-07T14:54:19;7.00;98.00
43524;DHT22;29120;52.006;6.020;2022-12-07T14:56:45;7.00;98.00
43524;DHT22;29120;52.006;6.020;2022-12-07T14:59:14;7.00;98.10
43524;DHT22;29120;52.006;6.020;2022-12-07T15:01:39;7.00;98.10
43524;DHT22;29120;52.006;6.020;2022-12-07T15:04:05;7.00;98.20
43524;DHT22;29120;52.006;6.020;2022-12-07T15:06:30;7.00;98.30
43524;DHT22;29120;52.006;6.020;2022-12-07T15:08:56;6.90;98.30
43524;DHT22;29120;52.006;6.020;2022-12-07T15:11:21;7.00;98.40
43524;DHT22;29120;52.006;6.020;2022-12-07T15:13:47;6.90;98.40
43524;DHT22;29120;52.006;6.020;2022-12-07T15:16:31;6.90;98.70
43524;DHT22;29120;52.006;6.020;2022-12-07T15:18:56;6.80;98.50
43524;DHT22;29120;52.006;6.020;2022-12-07T15:21:22;6.80;98.60
43524;DHT22;29120;52.006;6.020;2022-12-07T15:23:47;6.80;98.70
43524;DHT22;29120;52.006;6.020;2022-12-07T15:26:13;6.80;98.80
43524;DHT22;29120;52.006;6.020;2022-12-07T15:28:39;6.70;98.90
43524;DHT22;29120;52.006;6.020;2022-12-07T15:31:10;6.70;98.90
43524;DHT22;29120;52.006;6.020;2022-12-07T15:33:36;6.60;99.00
43524;DHT22;29120;52.006;6.020;2022-12-07T15:36:01;6.60;99.00
43524;DHT22;29120;52.006;6.020;2022-12-07T15:38:27;6.60;99.10
43524;DHT22;29120;52.006;6.020;2022-12-07T15:40:53;6.50;99.10
43524;DHT22;29120;52.006;6.020;2022-12-07T15:43:19;6.50;99.20
43524;DHT22;29120;52.006;6.020;2022-12-07T15:46:03;6.50;99.30
43524;DHT22;29120;52.006;6.020;2022-12-07T15:48:29;6.40;99.30
43524;DHT22;29120;52.006;6.020;2022-12-07T15:51:04;6.40;99.40
43524;DHT22;29120;52.006;6.020;2022-12-07T15:53:30;6.30;99.40
43524;DHT22;29120;52.006;6.020;2022-12-07T15:55:56;6.30;99.50
43524;DHT22;29120;52.006;6.020;2022-12-07T15:58:21;6.30;99.60
43524;DHT22;29120;52.006;6.020;2022-12-07T16:00:47;6.30;99.70
43524;DHT22;29120;52.006;6.020;2022-12-07T16:03:13;6.30;99.70
43524;DHT22;29120;52.006;6.020;2022-12-07T16:05:39;6.30;99.70
43524;DHT22;29120;52.006;6.020;2022-12-07T16:08:04;6.30;99.70
43524;DHT22;29120;52.006;6.020;2022-12-07T16:10:30;6.30;99.70
43524;DHT22;29120;52.006;6.020;2022-12-07T16:12:55;6.30;99.70
43524;DHT22;29120;52.006;6.020;2022-12-07T16:15:21;6.30;99.90
43524;DHT22;29120;52.006;6.020;2022-12-07T16:17:46;6.30;99.80
43524;DHT22;29120;52.006;6.020;2022-12-07T16:20:12;6.30;99.80
43524;DHT22;29120;52.006;6.020;2022-12-07T16:22:37;6.30;99.90
43524;DHT22;29120;52.006;6.020;2022-12-07T16:25:03;6.30;99.90
43524;DHT22;29120;52.006;6.020;2022-12-07T16:27:28;6.30;99.90
43524;DHT22;29120;52.006;6.020;2022-12-07T16:29:54;6.30;99.90
43524;DHT22;29120;52.006;6.020;2022-12-07T16:32:19;6.30;99.90
43524;DHT22;29120;52.006;6.020;2022-12-07T16:34:44;6.30;99.90
43524;DHT22;29120;52.006;6.020;2022-12-07T16:37:10;6.30;99.90
43524;DHT22;29120;52.006;6.020;2022-12-07T16:39:35;6.20;99.90
43524;DHT22;29120;52.006;6.020;2022-12-07T16:42:01;6.20;99.90
43524;DHT22;29120;52.006;6.020;2022-12-07T16:44:26;6.10;99.90
43524;DHT22;29120;52.006;6.020;2022-12-07T16:46:52;6.00;99.90
43524;DHT22;29120;52.006;6.020;2022-12-07T16:49:17;5.90;99.90
43524;DHT22;29120;52.006;6.020;2022-12-07T16:51:44;5.80;99.90
43524;DHT22;29120;52.006;6.020;2022-12-07T16:54:10;5.80;99.90
43524;DHT22;29120;52.006;6.020;2022-12-07T16:56:36;5.70;99.90
43524;DHT22;29120;52.006;6.020;2022-12-07T16:59:02;5.80;99.90
43524;DHT22;29120;52.006;6.020;2022-12-07T17:01:27;5.80;99.90
43524;DHT22;29120;52.006;6.020;2022-12-07T17:03:54;5.70;99.90
43524;DHT22;29120;52.006;6.020;2022-12-07T17:06:22;5.70;99.90
43524;DHT22;29120;52.006;6.020;2022-12-07T17:08:48;5.70;99.90
43524;DHT22;29120;52.006;6.020;2022-12-07T17:11:18;5.70;99.90
43524;DHT22;29120;52.006;6.020;2022-12-07T17:13:44;5.70;99.90
43524;DHT22;29120;52.006;6.020;2022-12-07T17:16:29;5.70;99.90
43524;DHT22;29120;52.006;6.020;2022-12-07T17:18:54;5.70;99.90
43524;DHT22;29120;52.006;6.020;2022-12-07T17:21:20;5.70;99.90
43524;DHT22;29120;52.006;6.020;2022-12-07T17:23:45;5.70;99.90
43524;DHT22;29120;52.006;6.020;2022-12-07T17:26:15;5.70;99.90
43524;DHT22;29120;52.006;6.020;2022-12-07T17:28:41;5.60;99.90
43524;DHT22;29120;52.006;6.020;2022-12-07T17:31:08;5.60;99.90
43524;DHT22;29120;52.006;6.020;2022-12-07T17:33:34;5.60;99.90
43524;DHT22;29120;52.006;6.020;2022-12-07T17:35:59;5.60;99.90
43524;DHT22;29120;52.006;6.020;2022-12-07T17:38:25;5.60;99.90